Time;durP1;ratioP1;P1;durP2;ratioP2;P2;SDS_P1;SDS_P2;PMS_P1;PMS_P2;Temp;Humidity;BMP_temperature;BMP_pressure;BME280_temperature;BME280_humidity;BME280_pressure;Samples;Min_cycle;Max_cycle;Signal;HPM_P1;HPM_P2
2023/03/01 00:00:39;;;;;;;7.10;4.83;;;-3.90;99.90;-4.50;101951.00;;;;4934409;28;92950;-63
2023/03/01 00:03:05;;;;;;;7.50;4.90;;;-3.90;99.90;-4.50;101944.00;;;;4935029;28;92043;-63
2023/03/01 00:05:31;;;;;;;9.07;4.63;;;-4.50;99.90;-4.50;101936.00;;;;4933337;28;106980;-63
2023/03/01 00:07:57;;;;;;;7.17;4.47;;;-3.80;99.90;-4.50;101931.00;;;;4935183;28;92920;-63
2023/03/01 00:10:23;;;;;;;7.37;5.37;;;-3.90;99.90;-4.50;101923.00;;;;4933769;28;117138;-63
2023/03/01 00:12:49;;;;;;;9.73;4.87;;;-4.00;99.90;-4.50;101928.00;;;;4933016;28;108599;-63
2023/03/01 00:15:14;;;;;;;9.07;4.90;;;-3.90;99.90;-4.50;101926.00;;;;4935930;28;92872;-64
2023/03/01 00:17:40;;;;;;;8.53;5.53;;;-4.00;99.90;-4.50;101924.00;;;;4933382;28;121651;-63
2023/03/01 00:20:10;;;;;;;8.37;4.57;;;-4.60;99.90;-4.50;101933.00;;;;4933370;28;121241;-64
2023/03/01 00:22:36;;;;;;;8.37;5.60;;;-4.00;99.90;-4.50;101916.00;;;;4935577;28;92906;-64
2023/03/01 00:25:03;;;;;;;10.60;6.40;;;-4.00;99.90;-4.60;101920.00;;;;4934997;28;98305;-63
2023/03/01 00:27:29;;;;;;;8.53;5.10;;;-3.90;99.90;-4.60;101928.00;;;;4931028;28;111342;-63
2023/03/01 00:29:54;;;;;;;6.47;5.13;;;-4.00;99.90;-4.60;101914.00;;;;4934543;28;92773;-63
2023/03/01 00:32:20;;;;;;;5.13;3.80;;;-4.00;99.90;-4.60;101915.00;;;;4933692;28;110227;-63
2023/03/01 00:34:53;;;;;;;9.03;5.77;;;-4.00;99.90;-4.70;101918.00;;;;4933189;28;108810;-64
2023/03/01 00:37:21;;;;;;;10.53;5.63;;;-4.40;99.90;-4.60;101905.00;;;;4932615;28;92702;-63
2023/03/01 00:39:47;;;;;;;9.33;5.13;;;-4.10;99.90;-4.70;101895.00;;;;4934111;28;93622;-65
2023/03/01 00:42:12;;;;;;;8.37;5.37;;;-4.20;99.90;-4.70;101908.00;;;;4933322;28;99472;-64
2023/03/01 00:44:38;;;;;;;9.70;5.57;;;-4.10;99.90;-4.80;101908.00;;;;4934965;28;107752;-64
2023/03/01 00:47:04;;;;;;;11.30;6.17;;;-4.20;99.90;-4.70;101912.00;;;;4933102;28;122746;-63
2023/03/01 00:49:29;;;;;;;9.27;6.57;;;-4.00;99.90;-4.70;101914.00;;;;4931224;28;122409;-65
2023/03/01 00:51:55;;;;;;;8.30;5.57;;;-3.20;99.90;-4.80;101897.00;;;;4931726;28;98609;-64
2023/03/01 00:54:21;;;;;;;7.70;5.30;;;-3.70;99.90;-4.80;101904.00;;;;4931982;28;109286;-64
2023/03/01 00:56:46;;;;;;;7.30;5.07;;;-4.20;99.90;-4.80;101908.00;;;;4931630;28;121813;-64
2023/03/01 00:59:12;;;;;;;11.50;5.33;;;-4.20;99.90;-4.80;101906.00;;;;4930631;28;122480;-64
2023/03/01 01:01:38;;;;;;;9.90;5.97;;;-4.20;99.90;-4.80;101919.00;;;;4930648;28;109597;-64
2023/03/01 01:04:08;;;;;;;6.47;5.37;;;-4.20;99.90;-4.80;101910.00;;;;4931729;28;108772;-64
2023/03/01 01:06:43;;;;;;;10.17;5.83;;;-4.30;99.90;-4.90;101897.00;;;;4932495;28;106727;-65
2023/03/01 01:09:16;;;;;;;8.37;5.03;;;-4.20;99.90;-4.90;101908.00;;;;4933676;28;97085;-64
2023/03/01 01:11:50;;;;;;;8.50;5.00;;;-4.40;99.90;-4.90;101906.00;;;;4934426;28;93036;-64
2023/03/01 01:14:18;;;;;;;10.00;5.40;;;-4.30;99.90;-5.00;101897.00;;;;4930752;28;92884;-65
2023/03/01 01:16:43;;;;;;;9.20;5.17;;;-4.40;99.90;-5.00;101892.00;;;;4915610;28;92117;-65
2023/03/01 01:19:11;;;;;;;6.33;5.43;;;-3.90;99.90;-5.00;101898.00;;;;4933172;28;121621;-65
2023/03/01 01:21:37;;;;;;;11.23;5.20;;;-4.40;99.90;-5.00;101886.00;;;;4930837;28;111378;-65
2023/03/01 01:24:04;;;;;;;9.87;5.47;;;-4.40;99.90;-4.90;101886.00;;;;4931078;28;93848;-65
2023/03/01 01:26:32;;;;;;;7.03;4.93;;;-4.40;99.90;-4.90;101885.00;;;;4932911;28;94030;-65
2023/03/01 01:28:59;;;;;;;10.27;6.10;;;-4.30;99.90;-4.90;101887.00;;;;4930561;28;93887;-65
2023/03/01 01:31:42;;;;;;;9.13;6.20;;;-4.30;99.90;-5.00;101877.00;;;;4932660;28;92922;-66
2023/03/01 01:34:17;;;;;;;10.57;5.63;;;-4.40;99.90;-5.00;101887.00;;;;4931552;28;97977;-65
2023/03/01 01:36:43;;;;;;;9.50;5.97;;;-4.40;99.90;-5.00;101885.00;;;;4931664;28;94099;-66
2023/03/01 01:39:12;;;;;;;8.73;5.50;;;-4.40;99.90;-5.00;101870.00;;;;4920586;28;95080;-65
2023/03/01 01:41:42;;;;;;;9.83;5.40;;;-4.40;99.90;-5.00;101871.00;;;;4935308;28;92105;-65
2023/03/01 01:44:25;;;;;;;8.37;4.97;;;-4.40;99.90;-5.10;101879.00;;;;4932462;28;93031;-65
2023/03/01 01:47:10;;;;;;;9.50;5.83;;;-4.40;99.90;-5.20;101875.00;;;;4913318;28;92987;-65
2023/03/01 01:49:55;;;;;;;10.77;5.77;;;-4.40;99.90;-5.20;101875.00;;;;4912264;28;113247;-64
2023/03/01 01:52:31;;;;;;;11.03;6.00;;;-4.60;99.90;-5.30;101856.00;;;;4917955;28;93479;-64
2023/03/01 01:55:06;;;;;;;10.43;5.77;;;-4.50;99.90;-5.30;101847.00;;;;4933857;28;92941;-64
2023/03/01 01:57:45;;;;;;;7.70;5.37;;;-4.70;99.90;-5.30;101851.00;;;;4912157;28;93928;-65
2023/03/01 02:00:24;;;;;;;11.77;5.80;;;-4.60;99.90;-5.30;101855.00;;;;4930946;28;115200;-64
2023/03/01 02:02:56;;;;;;;11.30;5.80;;;-4.70;99.90;-5.30;101847.00;;;;4931380;28;103649;-65
2023/03/01 02:05:49;;;;;;;10.97;6.77;;;-4.70;99.90;-5.30;101855.00;;;;4929986;28;103623;-65
2023/03/01 02:08:17;;;;;;;6.93;5.20;;;-4.60;99.90;-5.30;101856.00;;;;4930957;28;114280;-64
2023/03/01 02:10:43;;;;;;;9.97;6.40;;;-4.70;99.90;-5.30;101856.00;;;;4908279;28;107079;-65
2023/03/01 02:13:10;;;;;;;9.70;6.17;;;-4.70;99.90;-5.40;101849.00;;;;4902528;28;109901;-64
2023/03/01 02:15:39;;;;;;;8.87;5.63;;;-4.70;99.90;-5.40;101841.00;;;;4930889;28;95151;-65
2023/03/01 02:18:06;;;;;;;13.30;6.10;;;-4.70;99.90;-5.40;101835.00;;;;4924835;28;93292;-65
2023/03/01 02:20:57;;;;;;;11.73;6.47;;;-4.80;99.90;-5.50;101840.00;;;;4932383;28;92880;-65
2023/03/01 02:23:23;;;;;;;10.47;6.00;;;-4.80;99.90;-5.50;101840.00;;;;4931713;28;102707;-64
2023/03/01 02:26:07;;;;;;;8.93;5.77;;;-4.90;99.90;-5.60;101843.00;;;;4932452;28;110182;-64
2023/03/01 02:28:36;;;;;;;7.87;5.57;;;-4.90;99.90;-5.50;101851.00;;;;4931382;28;93840;-64
2023/03/01 02:33:51;;;;;;;10.50;6.70;;;-5.00;99.90;-5.60;101836.00;;;;4929267;28;92466;-64
2023/03/01 02:36:21;;;;;;;12.53;7.33;;;-5.10;99.90;-5.60;101840.00;;;;4932178;28;93015;-64
2023/03/01 02:38:49;;;;;;;14.77;7.03;;;-4.90;99.90;-5.60;101826.00;;;;4930823;28;105603;-64
2023/03/01 02:41:17;;;;;;;11.83;7.30;;;-4.10;99.90;-5.70;101826.00;;;;4930182;28;110967;-64
2023/03/01 02:43:43;;;;;;;11.23;6.93;;;-5.00;99.90;-5.70;101837.00;;;;4931711;28;92954;-64
2023/03/01 02:46:16;;;;;;;10.67;6.53;;;-5.00;99.90;-5.70;101841.00;;;;4932418;28;98979;-63
2023/03/01 02:48:53;;;;;;;11.87;7.03;;;-5.10;99.90;-5.70;101833.00;;;;4932793;28;93185;-63
2023/03/01 02:51:50;;;;;;;13.17;7.20;;;-5.10;99.90;-5.70;101823.00;;;;4935783;28;100872;-63
2023/03/01 02:54:31;;;;;;;10.03;7.37;;;-5.00;99.90;-5.70;101820.00;;;;4929583;28;99378;-63
2023/03/01 02:56:57;;;;;;;8.27;6.23;;;-5.20;99.90;-5.80;101822.00;;;;4933870;28;93051;-64
2023/03/01 02:59:30;;;;;;;16.37;7.30;;;-5.10;99.90;-5.80;101820.00;;;;4930894;28;122485;-63
2023/03/01 03:01:56;;;;;;;9.10;6.23;;;-4.10;99.90;-5.80;101819.00;;;;4927940;28;101841;-64
2023/03/01 03:04:21;;;;;;;10.07;6.03;;;-5.30;99.90;-5.90;101820.00;;;;4931359;28;110096;-63
2023/03/01 03:06:50;;;;;;;9.27;6.70;;;-5.20;99.90;-5.90;101815.00;;;;4931134;28;108644;-63
2023/03/01 03:09:17;;;;;;;8.47;6.30;;;-5.30;99.90;-5.90;101826.00;;;;4931629;28;93553;-63
2023/03/01 03:11:43;;;;;;;10.40;7.00;;;-4.40;99.90;-5.90;101826.00;;;;4932946;28;93870;-63
2023/03/01 03:14:15;;;;;;;12.97;7.17;;;-5.40;99.90;-5.90;101821.00;;;;4931507;28;92765;-62
2023/03/01 03:16:44;;;;;;;12.87;7.00;;;-5.20;99.90;-5.90;101820.00;;;;4928905;28;92993;-63
2023/03/01 03:19:11;;;;;;;11.30;6.00;;;-5.30;99.90;-5.90;101834.00;;;;4934809;28;93117;-63
2023/03/01 03:21:37;;;;;;;11.87;6.80;;;-5.30;99.90;-5.80;101829.00;;;;4934749;28;113318;-63
2023/03/01 03:24:03;;;;;;;10.13;6.70;;;-5.20;99.90;-5.80;101823.00;;;;4936661;28;92213;-62
2023/03/01 03:26:29;;;;;;;11.33;6.70;;;-5.20;99.90;-5.80;101827.00;;;;4934698;28;92887;-61
2023/03/01 03:29:01;;;;;;;12.97;6.40;;;-5.20;99.90;-5.90;101827.00;;;;4934979;28;102281;-63
2023/03/01 03:31:27;;;;;;;13.37;6.70;;;-5.20;99.90;-5.90;101819.00;;;;4931731;28;123901;-62
2023/03/01 03:33:54;;;;;;;10.53;6.47;;;-5.20;99.90;-5.90;101829.00;;;;4934723;28;92946;-63
2023/03/01 03:36:23;;;;;;;14.87;8.37;;;-5.30;99.90;-5.90;101812.00;;;;4929113;28;92985;-63
2023/03/01 03:38:49;;;;;;;16.37;7.53;;;-5.20;99.90;-5.90;101808.00;;;;4935034;28;93220;-62
2023/03/01 03:41:16;;;;;;;11.70;7.30;;;-5.40;99.90;-5.90;101817.00;;;;4934146;28;96023;-62
2023/03/01 03:43:43;;;;;;;13.67;7.77;;;-5.20;99.90;-5.90;101809.00;;;;4935129;28;93146;-62
2023/03/01 03:46:10;;;;;;;15.13;7.40;;;-5.30;99.90;-6.00;101805.00;;;;4933189;28;92960;-62
2023/03/01 03:48:43;;;;;;;9.13;7.40;;;-5.30;99.90;-6.00;101803.00;;;;4934335;28;93163;-63
2023/03/01 03:51:16;;;;;;;14.43;7.57;;;-5.30;99.90;-6.00;101814.00;;;;4943409;28;92979;-62
2023/03/01 03:53:42;;;;;;;12.50;7.40;;;-5.40;99.90;-6.00;101812.00;;;;4934160;28;93380;-62
2023/03/01 03:56:08;;;;;;;11.20;7.10;;;-5.40;99.90;-6.00;101806.00;;;;4936062;28;93735;-63
2023/03/01 03:58:34;;;;;;;11.87;6.73;;;-5.40;99.90;-5.90;101807.00;;;;4935490;28;93439;-62
2023/03/01 04:01:00;;;;;;;13.23;7.43;;;-5.20;99.90;-6.00;101818.00;;;;4936294;28;93745;-62
2023/03/01 04:03:29;;;;;;;13.47;8.37;;;-5.30;99.90;-6.00;101808.00;;;;4934858;28;92811;-62
2023/03/01 04:05:58;;;;;;;12.10;8.23;;;-5.20;99.90;-6.00;101808.00;;;;4932705;28;101622;-63
2023/03/01 04:08:24;;;;;;;16.00;8.30;;;-5.30;99.90;-6.00;101815.00;;;;4932389;28;93660;-62
2023/03/01 04:10:53;;;;;;;13.50;8.00;;;-5.30;99.90;-6.00;101819.00;;;;4932544;28;93976;-62
2023/03/01 04:13:28;;;;;;;17.27;8.30;;;-5.30;99.90;-6.00;101807.00;;;;4918094;28;92147;-62
2023/03/01 04:15:54;;;;;;;13.33;8.17;;;-5.30;99.90;-6.10;101805.00;;;;4933289;28;109749;-62
2023/03/01 04:18:23;;;;;;;11.60;7.13;;;-5.50;99.90;-6.10;101805.00;;;;4932684;28;124172;-62
2023/03/01 04:20:51;;;;;;;10.67;7.63;;;-5.50;99.90;-6.20;101809.00;;;;4933906;28;94260;-63
2023/03/01 04:23:20;;;;;;;11.53;7.47;;;-5.40;99.90;-6.20;101812.00;;;;4935972;28;92899;-61
2023/03/01 04:25:54;;;;;;;14.30;8.03;;;-5.60;99.90;-6.30;101803.00;;;;4933859;28;92858;-62
2023/03/01 04:28:28;;;;;;;17.43;8.33;;;-5.60;99.90;-6.30;101794.00;;;;4933811;28;94238;-64
2023/03/01 04:31:17;;;;;;;14.43;8.07;;;-5.60;99.90;-6.40;101814.00;;;;4933531;28;93839;-62
2023/03/01 04:33:46;;;;;;;16.47;8.43;;;-5.60;99.90;-6.30;101811.00;;;;4917848;28;93053;-62
2023/03/01 04:36:14;;;;;;;17.27;8.20;;;-5.70;99.90;-6.40;101803.00;;;;4931763;28;94648;-62
2023/03/01 04:38:41;;;;;;;15.27;8.90;;;-5.70;99.90;-6.40;101814.00;;;;4936300;28;92727;-61
2023/03/01 04:41:10;;;;;;;15.73;8.87;;;-5.70;99.90;-6.50;101797.00;;;;4933965;28;93155;-62
2023/03/01 04:43:54;;;;;;;15.47;7.20;;;-5.80;99.90;-6.50;101815.00;;;;4935387;28;92908;-63
2023/03/01 04:46:21;;;;;;;19.37;9.17;;;-5.80;99.90;-6.60;101803.00;;;;4933831;28;109002;-62
2023/03/01 04:48:47;;;;;;;15.03;8.43;;;-5.90;99.90;-6.60;101793.00;;;;4933759;28;93193;-62
2023/03/01 04:51:13;;;;;;;21.17;12.37;;;-6.00;99.90;-6.60;101792.00;;;;4933116;28;93341;-62
2023/03/01 04:53:39;;;;;;;26.27;12.10;;;-6.00;99.90;-6.60;101812.00;;;;4934751;28;95302;-62
2023/03/01 04:56:06;;;;;;;25.37;15.17;;;-6.00;99.90;-6.60;101800.00;;;;4934736;28;98198;-63
2023/03/01 04:58:32;;;;;;;27.20;18.47;;;-5.90;99.90;-6.50;101783.00;;;;4934844;28;93623;-62
2023/03/01 05:00:57;;;;;;;21.23;13.90;;;-5.90;99.90;-6.50;101796.00;;;;4932195;28;93534;-62
2023/03/01 05:03:23;;;;;;;31.20;18.30;;;-5.90;99.90;-6.50;101790.00;;;;4932432;28;98392;-62
2023/03/01 05:05:52;;;;;;;25.13;15.23;;;-5.90;99.90;-6.50;101782.00;;;;4932140;28;93034;-61
2023/03/01 05:08:18;;;;;;;23.03;15.43;;;-5.90;99.90;-6.50;101785.00;;;;4932191;28;95441;-62
2023/03/01 05:10:50;;;;;;;28.27;14.60;;;-5.90;99.90;-6.50;101779.00;;;;4933654;28;93918;-63
2023/03/01 05:13:20;;;;;;;20.53;13.60;;;-6.00;99.90;-6.50;101778.00;;;;4918824;28;99655;-63
2023/03/01 05:15:53;;;;;;;22.60;10.23;;;-5.90;99.90;-6.50;101780.00;;;;4929652;28;92842;-62
2023/03/01 05:18:18;;;;;;;15.40;9.30;;;-5.90;99.90;-6.50;101782.00;;;;4930120;28;93552;-62
2023/03/01 05:20:44;;;;;;;16.27;10.90;;;-5.80;99.90;-6.50;101787.00;;;;4931487;28;123203;-63
2023/03/01 05:23:10;;;;;;;17.90;10.57;;;-5.90;99.90;-6.50;101794.00;;;;4929924;28;94170;-62
2023/03/01 05:25:39;;;;;;;20.90;10.93;;;-5.90;99.90;-6.40;101794.00;;;;4931133;28;93018;-63
2023/03/01 05:28:09;;;;;;;18.27;10.30;;;-5.90;99.90;-6.40;101802.00;;;;4931807;28;93071;-63
2023/03/01 05:30:35;;;;;;;19.93;10.47;;;-5.90;99.90;-6.40;101799.00;;;;4931452;28;113279;-63
2023/03/01 05:33:02;;;;;;;17.47;8.20;;;-5.80;99.90;-6.40;101798.00;;;;4932626;28;93080;-63
2023/03/01 05:35:29;;;;;;;18.03;10.20;;;-5.80;99.90;-6.40;101779.00;;;;4929823;28;100738;-63
2023/03/01 05:37:54;;;;;;;22.93;10.80;;;-5.80;99.90;-6.40;101781.00;;;;4928993;28;93820;-63
2023/03/01 05:40:23;;;;;;;12.30;8.83;;;-6.80;99.90;-6.30;101793.00;;;;4926637;28;122074;-63
2023/03/01 05:42:54;;;;;;;21.47;10.23;;;-5.70;99.90;-6.40;101782.00;;;;4930641;28;93064;-63
2023/03/01 05:45:20;;;;;;;24.53;9.93;;;-5.70;99.90;-6.40;101796.00;;;;4928954;28;93281;-61
2023/03/01 05:47:48;;;;;;;19.27;10.07;;;-5.60;99.90;-6.40;101794.00;;;;4927916;28;93263;-63
2023/03/01 05:50:19;;;;;;;12.37;8.33;;;-5.60;99.90;-6.50;101794.00;;;;4925923;28;93479;-62
2023/03/01 05:52:58;;;;;;;13.87;8.33;;;-5.90;99.90;-6.60;101788.00;;;;4929222;28;92310;-62
2023/03/01 05:55:24;;;;;;;17.27;9.50;;;-5.80;99.90;-6.60;101788.00;;;;4931508;28;92902;-62
2023/03/01 05:57:50;;;;;;;14.87;9.07;;;-5.90;99.90;-6.60;101793.00;;;;4929983;28;122906;-64
2023/03/01 06:00:19;;;;;;;16.27;8.87;;;-6.00;99.90;-6.70;101797.00;;;;4932225;28;93789;-62
2023/03/01 06:02:45;;;;;;;14.53;8.63;;;-6.00;99.90;-6.70;101802.00;;;;4933022;28;93557;-62
2023/03/01 06:05:12;;;;;;;14.67;8.93;;;-6.10;99.90;-6.80;101805.00;;;;4932188;28;92841;-62
2023/03/01 06:07:38;;;;;;;17.43;7.97;;;-6.10;99.90;-6.80;101798.00;;;;4929117;28;120918;-63
2023/03/01 06:10:06;;;;;;;20.30;9.67;;;-6.10;99.90;-6.80;101804.00;;;;4928708;28;92972;-62
2023/03/01 06:12:33;;;;;;;13.23;8.07;;;-5.80;99.90;-6.80;101811.00;;;;4930252;28;101546;-62
2023/03/01 06:15:00;;;;;;;13.70;8.17;;;-5.70;99.90;-6.80;101805.00;;;;4931558;28;93056;-62
2023/03/01 06:17:28;;;;;;;17.57;8.90;;;-6.10;99.90;-6.70;101810.00;;;;4933058;28;95439;-63
2023/03/01 06:19:54;;;;;;;15.33;8.23;;;-6.10;99.90;-6.60;101798.00;;;;4930915;28;93190;-63
2023/03/01 06:22:20;;;;;;;15.13;8.60;;;-5.40;99.90;-6.50;101805.00;;;;4930994;28;110315;-63
2023/03/01 06:24:45;;;;;;;15.73;8.77;;;-5.90;99.90;-6.30;101808.00;;;;4928953;28;108368;-63
2023/03/01 06:27:11;;;;;;;18.07;10.60;;;-5.80;99.90;-6.20;101808.00;;;;4912905;28;122318;-62
2023/03/01 06:29:37;;;;;;;16.37;9.90;;;-5.70;99.90;-6.00;101802.00;;;;4930331;28;122820;-62
2023/03/01 06:32:03;;;;;;;20.40;11.00;;;-5.40;99.90;-5.70;101810.00;;;;4928848;28;110928;-62
2023/03/01 06:34:29;;;;;;;20.37;10.83;;;-5.20;99.90;-5.40;101807.00;;;;4929490;28;93091;-62
2023/03/01 06:36:55;;;;;;;20.63;10.57;;;-4.90;99.90;-5.20;101801.00;;;;4928800;28;113559;-62
2023/03/01 06:39:20;;;;;;;19.03;12.17;;;-4.70;99.90;-5.00;101802.00;;;;4931230;28;122495;-62
2023/03/01 06:41:46;;;;;;;21.40;10.10;;;-4.40;99.90;-4.90;101807.00;;;;4930477;28;112908;-63
2023/03/01 06:44:12;;;;;;;19.70;11.23;;;-4.40;99.90;-4.70;101797.00;;;;4928494;28;102822;-62
2023/03/01 06:46:40;;;;;;;16.00;10.47;;;-4.20;99.90;-4.60;101799.00;;;;4928056;28;122944;-61
2023/03/01 06:49:09;;;;;;;18.07;10.20;;;-3.80;99.90;-4.40;101799.00;;;;4916665;28;94044;-62
2023/03/01 06:51:37;;;;;;;16.27;9.90;;;-3.90;99.90;-4.30;101791.00;;;;4932405;28;92679;-63
2023/03/01 06:54:06;;;;;;;13.73;8.87;;;-3.70;99.90;-4.10;101792.00;;;;4936594;28;92913;-64
2023/03/01 06:56:32;;;;;;;13.13;8.00;;;-2.50;99.90;-4.00;101787.00;;;;4934386;28;115626;-63
2023/03/01 06:58:58;;;;;;;13.40;7.73;;;-3.50;99.90;-3.80;101788.00;;;;4936776;28;122650;-63
2023/03/01 07:01:24;;;;;;;11.53;6.73;;;-3.30;99.90;-3.60;101786.00;;;;4934252;28;100400;-63
2023/03/01 07:03:50;;;;;;;12.40;7.03;;;-3.20;99.90;-3.40;101792.00;;;;4931894;28;92858;-63
2023/03/01 07:06:15;;;;;;;11.00;6.80;;;-2.90;99.90;-3.30;101802.00;;;;4935162;28;93266;-63
2023/03/01 07:08:41;;;;;;;10.43;6.17;;;-2.80;99.90;-3.10;101794.00;;;;4933196;28;103739;-63
2023/03/01 07:11:07;;;;;;;9.83;6.40;;;-2.70;99.90;-3.00;101809.00;;;;4937095;28;109381;-64
2023/03/01 07:13:33;;;;;;;12.30;7.17;;;-2.60;99.90;-2.70;101806.00;;;;4934060;28;93897;-63
2023/03/01 07:15:59;;;;;;;10.97;7.03;;;-2.40;99.90;-2.40;101808.00;;;;4931719;28;124694;-62
2023/03/01 07:18:24;;;;;;;11.80;8.33;;;-2.10;99.90;-2.30;101807.00;;;;4934246;28;121338;-63
2023/03/01 07:20:50;;;;;;;9.03;5.77;;;-1.80;99.90;-2.00;101813.00;;;;4933602;28;110852;-64
2023/03/01 07:23:16;;;;;;;9.97;7.43;;;-1.60;99.90;-1.80;101806.00;;;;4930863;28;93872;-64
2023/03/01 07:25:42;;;;;;;14.43;7.73;;;-1.40;99.90;-1.60;101783.00;;;;4934208;28;122436;-65
2023/03/01 07:28:08;;;;;;;14.23;8.30;;;-1.20;99.90;-1.40;101795.00;;;;4935247;28;92944;-65
2023/03/01 07:30:33;;;;;;;12.53;7.80;;;-1.00;99.90;-1.10;101782.00;;;;4934966;28;106484;-64
2023/03/01 07:32:59;;;;;;;13.33;7.37;;;-0.80;99.90;-0.90;101787.00;;;;4945495;28;108665;-65
2023/03/01 07:35:26;;;;;;;8.93;7.40;;;-0.50;99.90;-0.70;101788.00;;;;4951970;28;93593;-66
2023/03/01 07:37:53;;;;;;;12.63;6.93;;;0.00;99.90;-0.40;101771.00;;;;4939178;28;101961;-65
2023/03/01 07:40:19;;;;;;;10.53;6.53;;;-0.10;99.90;-0.10;101793.00;;;;4931826;28;92879;-65
2023/03/01 07:42:45;;;;;;;11.80;6.30;;;0.20;99.90;0.20;101791.00;;;;4934219;28;92936;-66
2023/03/01 07:45:12;;;;;;;13.60;6.40;;;0.50;99.90;0.50;101791.00;;;;4934852;28;93196;-66
2023/03/01 07:47:38;;;;;;;10.10;6.93;;;1.80;99.90;0.80;101789.00;;;;4915962;28;93056;-66
2023/03/01 07:50:04;;;;;;;7.40;4.83;;;1.10;99.90;1.10;101787.00;;;;4933694;28;109220;-66
2023/03/01 07:52:30;;;;;;;10.73;5.77;;;2.10;99.90;1.40;101798.00;;;;4934017;28;92935;-66
2023/03/01 07:54:56;;;;;;;11.47;6.63;;;1.60;99.90;1.70;101803.00;;;;4932500;28;93132;-65
2023/03/01 07:57:23;;;;;;;7.67;6.20;;;1.90;99.90;2.00;101816.00;;;;4934671;28;107726;-65
2023/03/01 07:59:48;;;;;;;9.37;6.97;;;2.20;99.90;2.30;101806.00;;;;4934719;28;93004;-65
2023/03/01 08:02:14;;;;;;;15.87;6.60;;;2.60;99.90;2.60;101802.00;;;;4931487;28;108674;-65
2023/03/01 08:04:42;;;;;;;11.27;7.20;;;2.80;99.90;2.90;101813.00;;;;4932737;28;93218;-65
2023/03/01 08:07:07;;;;;;;11.10;6.23;;;3.50;99.90;3.20;101811.00;;;;4933875;28;93737;-65
2023/03/01 08:09:37;;;;;;;9.60;6.33;;;3.30;99.90;3.50;101821.00;;;;4934511;28;93020;-64
2023/03/01 08:12:04;;;;;;;9.23;6.20;;;3.70;99.90;3.90;101822.00;;;;4933405;28;92824;-64
2023/03/01 08:14:31;;;;;;;9.70;6.33;;;4.10;99.90;4.10;101817.00;;;;4933812;28;93780;-64
2023/03/01 08:16:57;;;;;;;10.53;6.77;;;4.30;99.90;4.40;101821.00;;;;4934056;28;94644;-64
2023/03/01 08:19:23;;;;;;;14.23;9.20;;;4.50;99.90;4.60;101814.00;;;;4934606;28;92087;-64
2023/03/01 08:21:49;;;;;;;17.30;8.00;;;4.90;99.90;4.80;101806.00;;;;4933606;28;93149;-65
2023/03/01 08:24:14;;;;;;;11.53;7.27;;;5.00;99.90;5.00;101807.00;;;;4930511;28;123731;-65
2023/03/01 08:26:40;;;;;;;11.83;8.07;;;6.20;99.90;5.10;101803.00;;;;4931638;28;123450;-65
2023/03/01 08:29:06;;;;;;;10.60;7.53;;;5.40;99.90;5.30;101806.00;;;;4932165;28;92990;-65
2023/03/01 08:31:38;;;;;;;14.70;7.60;;;5.50;99.90;5.40;101815.00;;;;4930420;28;95681;-65
2023/03/01 08:34:11;;;;;;;13.63;7.50;;;6.30;99.90;5.60;101813.00;;;;4931780;28;93426;-66
2023/03/01 08:36:43;;;;;;;13.13;6.33;;;6.10;99.90;5.80;101813.00;;;;4931106;28;93763;-66
2023/03/01 08:39:12;;;;;;;10.40;7.53;;;5.90;99.90;6.10;101806.00;;;;4932364;28;92853;-66
2023/03/01 08:41:38;;;;;;;9.53;7.17;;;6.20;99.90;6.30;101798.00;;;;4933222;28;92879;-65
2023/03/01 08:44:04;;;;;;;11.17;7.93;;;6.90;99.90;6.60;101803.00;;;;4929674;28;122963;-65
2023/03/01 08:46:38;;;;;;;14.67;8.20;;;7.60;99.90;6.80;101812.00;;;;4930688;28;95568;-66
2023/03/01 08:49:10;;;;;;;11.93;7.50;;;7.00;99.90;7.00;101807.00;;;;4931901;28;92879;-66
2023/03/01 08:51:36;;;;;;;12.33;7.30;;;7.10;99.90;7.20;101800.00;;;;4930374;28;94002;-65
2023/03/01 08:54:11;;;;;;;13.50;8.23;;;7.30;99.20;7.30;101797.00;;;;4931042;28;93015;-64
2023/03/01 08:56:37;;;;;;;11.13;8.13;;;7.50;98.40;7.50;101785.00;;;;4916162;28;95078;-65
2023/03/01 08:59:02;;;;;;;12.63;9.00;;;7.70;97.60;7.50;101789.00;;;;4932772;28;97113;-65
2023/03/01 09:01:28;;;;;;;12.97;8.17;;;7.80;94.70;7.50;101787.00;;;;4932300;28;92887;-65
2023/03/01 09:03:54;;;;;;;15.00;8.13;;;7.80;93.10;7.40;101784.00;;;;4932118;28;123345;-65
2023/03/01 09:06:19;;;;;;;14.07;9.10;;;7.70;90.60;7.30;101795.00;;;;4930736;28;123159;-67
2023/03/01 09:08:48;;;;;;;16.07;7.73;;;7.50;91.70;7.40;101791.00;;;;4930952;28;92339;-65
2023/03/01 09:11:17;;;;;;;18.57;8.97;;;7.60;91.90;7.60;101788.00;;;;4932856;28;92842;-64
2023/03/01 09:13:44;;;;;;;11.80;7.77;;;7.70;91.00;7.70;101795.00;;;;4929714;28;93802;-66
2023/03/01 09:16:24;;;;;;;10.27;6.97;;;7.80;91.40;7.90;101784.00;;;;4912297;28;93778;-67
2023/03/01 09:18:53;;;;;;;10.80;8.37;;;8.50;91.50;8.20;101792.00;;;;4928695;28;110150;-65
2023/03/01 09:21:22;;;;;;;13.37;9.33;;;8.30;91.30;8.40;101779.00;;;;4932332;28;95487;-65
2023/03/01 09:23:48;;;;;;;10.67;6.63;;;8.40;89.90;8.50;101778.00;;;;4929016;28;94347;-67
2023/03/01 09:26:21;;;;;;;10.70;7.70;;;8.60;90.10;8.60;101784.00;;;;4931798;28;92984;-67
2023/03/01 09:28:50;;;;;;;12.93;8.27;;;8.70;88.00;8.70;101784.00;;;;4929729;28;93050;-67
2023/03/01 09:31:18;;;;;;;15.30;9.13;;;8.80;85.70;8.80;101781.00;;;;4915248;28;93089;-65
2023/03/01 09:33:47;;;;;;;12.30;7.80;;;8.90;83.50;8.80;101780.00;;;;4931188;28;92568;-65
2023/03/01 09:36:18;;;;;;;10.27;7.50;;;8.90;78.30;8.70;101775.00;;;;4930315;28;93135;-67
2023/03/01 09:38:45;;;;;;;10.30;7.50;;;8.80;78.00;8.80;101779.00;;;;4929055;28;95414;-67
2023/03/01 09:41:40;;;;;;;15.50;8.10;;;8.80;76.60;8.80;101770.00;;;;4930629;28;93998;-66
2023/03/01 09:44:31;;;;;;;11.00;6.47;;;8.90;78.40;9.00;101769.00;;;;4930906;28;93219;-66
2023/03/01 09:46:58;;;;;;;12.13;7.30;;;9.00;78.20;9.30;101774.00;;;;4915310;28;93025;-67
2023/03/01 09:49:34;;;;;;;13.47;8.13;;;9.30;78.90;9.50;101779.00;;;;4910379;28;93524;-67
2023/03/01 09:52:23;;;;;;;14.37;7.83;;;9.50;79.00;9.90;101780.00;;;;4929608;28;94637;-67
2023/03/01 09:54:54;;;;;;;16.57;8.40;;;9.80;77.00;10.00;101776.00;;;;4936299;28;93126;-67
2023/03/01 09:57:41;;;;;;;12.73;6.97;;;10.00;74.50;10.10;101777.00;;;;4932187;28;93245;-66
2023/03/01 10:00:36;;;;;;;10.70;7.33;;;10.00;71.10;10.10;101780.00;;;;4913223;28;102472;-66
2023/03/01 10:03:26;;;;;;;11.27;8.10;;;10.10;69.30;10.20;101768.00;;;;4915111;28;96786;-66
2023/03/01 10:06:00;;;;;;;12.87;7.83;;;10.20;69.70;10.50;101785.00;;;;4911369;28;112802;-66
2023/03/01 10:08:41;;;;;;;13.47;8.60;;;10.40;69.40;10.70;101781.00;;;;4894819;28;93816;-67
2023/03/01 10:11:21;;;;;;;15.17;7.30;;;10.60;69.40;10.80;101787.00;;;;4929233;28;92925;-65
2023/03/01 10:14:32;;;;;;;14.07;7.27;;;10.70;66.70;10.90;101779.00;;;;4919491;28;93086;-67
2023/03/01 10:17:39;;;;;;;12.43;7.10;;;10.90;63.20;10.70;101784.00;;;;4931115;28;93593;-67
2023/03/01 10:20:22;;;;;;;9.37;5.70;;;10.70;59.50;10.60;101784.00;;;;4916414;28;95528;-67
2023/03/01 10:22:52;;;;;;;12.17;6.97;;;10.60;60.40;10.60;101774.00;;;;4930343;28;92966;-66
2023/03/01 10:25:44;;;;;;;13.63;6.73;;;10.60;60.40;10.80;101768.00;;;;4932406;28;93086;-66
2023/03/01 10:28:17;;;;;;;13.07;7.97;;;10.60;60.30;10.80;101767.00;;;;4932910;28;109293;-66
2023/03/01 10:30:43;;;;;;;12.30;7.63;;;10.70;58.90;10.90;101767.00;;;;4931914;28;92886;-66
2023/03/01 10:33:26;;;;;;;10.47;7.50;;;10.80;59.20;10.90;101767.00;;;;4930651;28;92970;-66
2023/03/01 10:35:51;;;;;;;10.73;7.00;;;10.90;59.40;11.10;101763.00;;;;4944807;28;94028;-68
2023/03/01 10:38:20;;;;;;;15.40;7.97;;;11.00;59.10;11.30;101763.00;;;;4930089;28;100404;-68
2023/03/01 10:41:08;;;;;;;12.80;7.37;;;11.10;59.20;11.60;101749.00;;;;4930116;28;93764;-66
2023/03/01 10:43:51;;;;;;;9.37;6.83;;;11.30;60.20;11.80;101745.00;;;;4945963;28;93139;-66
2023/03/01 10:46:31;;;;;;;9.63;6.47;;;11.60;56.90;11.90;101755.00;;;;4931664;28;92733;-67
2023/03/01 10:49:20;;;;;;;13.13;6.90;;;11.70;57.00;12.10;101764.00;;;;4929194;28;93306;-66
2023/03/01 10:51:49;;;;;;;17.50;6.67;;;11.90;57.20;12.20;101752.00;;;;4932664;28;95750;-66
2023/03/01 10:54:32;;;;;;;14.70;6.43;;;12.00;56.50;12.30;101758.00;;;;4930823;28;94645;-66
2023/03/01 10:57:01;;;;;;;8.43;5.37;;;12.10;56.60;12.30;101755.00;;;;4929580;28;93095;-66